Time;durP1;ratioP1;P1;durP2;ratioP2;P2;SDS_P1;SDS_P2;PMS_P1;PMS_P2;Temp;Humidity;BMP_temperature;BMP_pressure;BME280_temperature;BME280_humidity;BME280_pressure;Samples;Min_cycle;Max_cycle;Signal;HPM_P1;HPM_P2
2023/09/19 00:00:35;;;;;;;;;;;;;;;19.27;72.99;100286.55;105467;1270;125516;-83
2023/09/19 00:03:22;;;;;;;;;;;;;;;19.31;73.03;100291.98;105705;1273;68606;-84
2023/09/19 00:05:50;;;;;;;;;;;;;;;19.33;73.09;100294.98;105515;1273;71431;-84
2023/09/19 00:08:16;;;;;;;;;;;;;;;19.36;73.06;100294.23;105532;1268;125329;-83
2023/09/19 00:10:43;;;;;;;;;;;;;;;19.38;72.98;100297.90;105671;1268;60142;-85
2023/09/19 00:13:13;;;;;;;;;;;;;;;19.41;73.00;100295.90;105774;1269;125417;-85
2023/09/19 00:15:41;;;;;;;;;;;;;;;19.43;72.98;100294.79;105734;1273;65847;-84
2023/09/19 00:18:08;;;;;;;;;;;;;;;19.46;72.93;100290.30;105646;1273;125570;-84
2023/09/19 00:20:38;;;;;;;;;;;;;;;19.49;72.85;100289.70;105790;1268;62129;-85
2023/09/19 00:23:08;;;;;;;;;;;;;;;19.52;72.90;100293.20;105795;1274;61927;-84
2023/09/19 00:25:36;;;;;;;;;;;;;;;19.55;72.92;100291.36;105743;1268;125401;-83
2023/09/19 00:28:04;;;;;;;;;;;;;;;19.58;72.77;100293.80;105817;1268;65526;-85
2023/09/19 00:30:31;;;;;;;;;;;;;;;19.60;72.80;100292.85;105743;1268;125445;-84
2023/09/19 00:32:58;;;;;;;;;;;;;;;19.62;72.73;100294.07;105616;1274;62178;-85
2023/09/19 00:35:24;;;;;;;;;;;;;;;19.65;72.67;100296.34;105779;1269;62100;-84
2023/09/19 00:37:51;;;;;;;;;;;;;;;19.65;72.55;100295.62;105709;1268;126362;-84
2023/09/19 00:40:18;;;;;;;;;;;;;;;19.66;72.63;100292.92;105798;1268;65217;-84
2023/09/19 00:42:44;;;;;;;;;;;;;;;19.67;72.64;100292.19;105366;1270;126907;-84
2023/09/19 00:45:12;;;;;;;;;;;;;;;19.70;72.52;100289.30;105679;1271;62004;-84
2023/09/19 00:47:51;;;;;;;;;;;;;;;19.72;72.44;100284.27;105620;1268;62233;-84
2023/09/19 00:50:18;;;;;;;;;;;;;;;19.73;72.36;100282.15;105702;1270;125275;-85
2023/09/19 00:52:49;;;;;;;;;;;;;;;19.74;72.46;100283.55;105788;1268;65686;-84
2023/09/19 00:55:16;;;;;;;;;;;;;;;19.75;72.53;100282.81;105533;1274;125277;-85
2023/09/19 00:57:43;;;;;;;;;;;;;;;19.75;72.27;100279.60;105530;1275;62088;-85
2023/09/19 01:00:15;;;;;;;;;;;;;;;19.76;72.21;100271.59;105461;1270;125768;-85
2023/09/19 01:02:42;;;;;;;;;;;;;;;19.75;72.20;100274.80;105783;1268;74298;-83
2023/09/19 01:05:09;;;;;;;;;;;;;;;19.76;72.29;100276.02;105782;1268;66340;-85
2023/09/19 01:07:36;;;;;;;;;;;;;;;19.78;72.39;100278.48;105520;1271;125572;-84
2023/09/19 01:10:05;;;;;;;;;;;;;;;19.80;72.40;100282.17;105792;1270;61914;-85
2023/09/19 01:12:40;;;;;;;;;;;;;;;19.79;72.43;100280.94;105659;1273;125584;-85
2023/09/19 01:15:11;;;;;;;;;;;;;;;19.77;72.54;100279.92;105762;1273;75514;-85
2023/09/19 01:17:43;;;;;;;;;;;;;;;19.77;72.67;100278.15;105802;1270;65085;-85
2023/09/19 01:20:28;;;;;;;;;;;;;;;19.73;72.70;100276.08;105663;1271;125216;-85
2023/09/19 01:23:04;;;;;;;;;;;;;;;19.66;72.72;100272.64;105755;1270;62033;-85
2023/09/19 01:25:43;;;;;;;;;;;;;;;19.59;72.85;100270.99;105523;1269;125547;-85
2023/09/19 01:28:16;;;;;;;;;;;;;;;19.52;72.91;100265.61;105804;1269;75712;-85
2023/09/19 01:30:43;;;;;;;;;;;;;;;19.48;73.11;100261.42;105699;1273;125492;-84
2023/09/19 01:33:14;;;;;;;;;;;;;;;19.44;73.19;100261.86;105689;1273;71421;-85
2023/09/19 01:35:41;;;;;;;;;;;;;;;19.40;73.28;100259.96;105665;1268;62103;-85
2023/09/19 01:38:11;;;;;;;;;;;;;;;19.38;73.50;100261.61;105561;1274;126297;-85
2023/09/19 01:40:58;;;;;;;;;;;;;;;19.38;73.67;100265.17;105588;1275;75534;-84
2023/09/19 01:43:28;;;;;;;;;;;;;;;19.38;73.81;100264.45;105653;1271;125524;-83
2023/09/19 01:46:06;;;;;;;;;;;;;;;19.40;73.80;100262.47;105672;1273;72776;-84
2023/09/19 01:48:51;;;;;;;;;;;;;;;19.40;73.96;100262.64;105581;1273;125527;-83
2023/09/19 01:51:20;;;;;;;;;;;;;;;19.39;73.99;100272.09;105716;1281;62086;-85
2023/09/19 01:53:52;;;;;;;;;;;;;;;19.37;74.20;100268.56;105795;1270;74146;-84
2023/09/19 01:56:21;;;;;;;;;;;;;;;19.35;74.36;100262.57;105601;1273;125280;-84
2023/09/19 01:58:49;;;;;;;;;;;;;;;19.31;74.41;100257.65;105649;1268;72712;-84
2023/09/19 02:01:17;;;;;;;;;;;;;;;19.29;74.41;100256.45;105396;1275;125258;-84
2023/09/19 02:03:44;;;;;;;;;;;;;;;19.27;74.43;100253.99;105750;1268;62831;-84
2023/09/19 02:06:18;;;;;;;;;;;;;;;19.26;74.52;100252.59;105685;1273;125367;-84
2023/09/19 02:08:47;;;;;;;;;;;;;;;19.25;74.62;100250.29;105855;1272;66048;-84
2023/09/19 02:11:14;;;;;;;;;;;;;;;19.25;74.71;100246.92;105600;1275;72683;-84
2023/09/19 02:13:40;;;;;;;;;;;;;;;19.25;74.80;100250.84;105696;1268;125215;-85
2023/09/19 02:16:09;;;;;;;;;;;;;;;19.26;74.97;100253.30;105562;1268;62094;-84
2023/09/19 02:18:35;;;;;;;;;;;;;;;19.26;74.90;100246.36;105609;1268;125790;-84
2023/09/19 02:21:03;;;;;;;;;;;;;;;19.28;74.97;100244.56;105774;1270;65249;-84
2023/09/19 02:23:30;;;;;;;;;;;;;;;19.29;74.99;100243.45;105554;1277;72432;-84
2023/09/19 02:26:06;;;;;;;;;;;;;;;19.31;75.09;100256.23;105663;1268;125380;-84
2023/09/19 02:28:32;;;;;;;;;;;;;;;19.31;75.12;100264.05;105801;1270;60135;-84
2023/09/19 02:30:59;;;;;;;;;;;;;;;19.33;75.25;100260.47;105624;1268;125319;-85
2023/09/19 02:33:25;;;;;;;;;;;;;;;19.35;75.33;100256.52;105606;1275;64992;-85
2023/09/19 02:35:57;;;;;;;;;;;;;;;19.36;75.33;100250.98;105837;1268;73685;-86
2023/09/19 02:38:25;;;;;;;;;;;;;;;19.38;75.33;100243.46;105469;1275;125550;-85
2023/09/19 02:40:52;;;;;;;;;;;;;;;19.40;75.41;100242.70;106801;1269;62113;-84
2023/09/19 02:43:22;;;;;;;;;;;;;;;19.42;75.41;100240.02;105482;1270;125398;-83
2023/09/19 02:45:54;;;;;;;;;;;;;;;19.43;75.45;100229.12;105758;1270;66413;-83
2023/09/19 02:48:21;;;;;;;;;;;;;;;19.45;75.44;100221.80;105372;1276;125357;-85
2023/09/19 02:50:51;;;;;;;;;;;;;;;19.45;75.43;100213.27;105683;1273;62194;-82
2023/09/19 02:53:18;;;;;;;;;;;;;;;19.46;75.50;100211.45;105755;1272;62093;-82
2023/09/19 02:55:46;;;;;;;;;;;;;;;19.46;75.41;100213.05;105561;1271;125553;-82
2023/09/19 02:58:14;;;;;;;;;;;;;;;19.48;75.48;100209.83;105516;1270;66506;-83
2023/09/19 03:00:42;;;;;;;;;;;;;;;19.48;75.50;100208.02;105561;1273;125380;-81
2023/09/19 03:03:08;;;;;;;;;;;;;;;19.51;75.53;100202.28;105558;1270;60433;-83
2023/09/19 03:05:35;;;;;;;;;;;;;;;19.51;75.50;100200.85;105618;1273;62691;-81
2023/09/19 03:08:02;;;;;;;;;;;;;;;19.52;75.47;100198.88;105690;1272;125177;-83
2023/09/19 03:10:30;;;;;;;;;;;;;;;19.52;75.59;100197.11;105561;1275;65178;-83
2023/09/19 03:12:56;;;;;;;;;;;;;;;19.52;75.59;100195.32;105541;1268;125153;-83
2023/09/19 03:15:23;;;;;;;;;;;;;;;19.52;75.63;100196.21;105810;1273;62511;-83
2023/09/19 03:17:49;;;;;;;;;;;;;;;19.51;75.62;100193.02;105659;1269;62161;-83
2023/09/19 03:20:20;;;;;;;;;;;;;;;19.51;75.63;100187.14;105625;1270;125386;-84
2023/09/19 03:22:48;;;;;;;;;;;;;;;19.52;75.63;100176.45;105683;1270;65585;-84
2023/09/19 03:25:15;;;;;;;;;;;;;;;19.51;75.64;100173.27;105457;1269;125541;-82
2023/09/19 03:27:41;;;;;;;;;;;;;;;19.51;75.66;100178.80;105432;1274;62031;-83
2023/09/19 03:30:08;;;;;;;;;;;;;;;19.50;75.71;100184.70;105580;1268;125531;-84
2023/09/19 03:32:35;;;;;;;;;;;;;;;19.50;75.79;100185.76;105710;1268;73960;-84
2023/09/19 03:35:05;;;;;;;;;;;;;;;19.50;75.86;100185.76;105619;1269;64966;-84
2023/09/19 03:37:32;;;;;;;;;;;;;;;19.50;75.88;100176.15;105344;1270;126757;-83
2023/09/19 03:39:59;;;;;;;;;;;;;;;19.51;75.92;100174.35;105696;1269;62123;-84
2023/09/19 03:42:26;;;;;;;;;;;;;;;19.52;75.97;100171.83;105514;1270;125657;-83
2023/09/19 03:44:54;;;;;;;;;;;;;;;19.53;76.00;100174.48;105651;1268;75538;-83
2023/09/19 03:47:21;;;;;;;;;;;;;;;19.53;76.05;100170.92;105764;1274;66647;-83
2023/09/19 03:49:48;;;;;;;;;;;;;;;19.54;76.14;100173.75;105499;1269;125377;-88
2023/09/19 03:52:18;;;;;;;;;;;;;;;19.53;76.19;100174.64;105679;1268;62056;-87
2023/09/19 03:54:44;;;;;;;;;;;;;;;19.53;76.27;100170.55;105674;1268;125526;-88
2023/09/19 03:57:15;;;;;;;;;;;;;;;19.53;76.40;100169.84;105784;1268;74190;-86
2023/09/19 03:59:42;;;;;;;;;;;;;;;19.53;76.42;100168.42;105462;1273;66929;-78
2023/09/19 04:02:21;;;;;;;;;;;;;;;19.50;76.46;100164.22;105637;1272;125325;-82
2023/09/19 04:04:48;;;;;;;;;;;;;;;19.46;76.66;100169.83;105957;1272;60180;-82
2023/09/19 04:07:15;;;;;;;;;;;;;;;19.43;76.80;100179.67;105680;1269;125512;-82
2023/09/19 04:09:41;;;;;;;;;;;;;;;19.39;76.96;100175.84;105845;1273;74219;-82
2023/09/19 04:12:08;;;;;;;;;;;;;;;19.35;77.11;100180.70;105706;1268;125458;-90
2023/09/19 04:14:35;;;;;;;;;;;;;;;19.33;77.20;100181.84;106288;1268;72550;-92
2023/09/19 04:17:02;;;;;;;;;;;;;;;19.30;77.41;100175.31;106065;1272;62082;-93
2023/09/19 04:19:29;;;;;;;;;;;;;;;19.27;77.52;100175.00;105878;1270;124214;-92
2023/09/19 04:21:56;;;;;;;;;;;;;;;19.26;77.55;100178.77;105822;1270;74233;-81
2023/09/19 04:24:22;;;;;;;;;;;;;;;19.25;77.83;100178.27;105755;1270;125847;-82
2023/09/19 04:26:49;;;;;;;;;;;;;;;19.24;77.96;100181.83;105814;1272;72884;-82
2023/09/19 04:29:16;;;;;;;;;;;;;;;19.21;78.14;100187.93;105845;1269;60110;-82
2023/09/19 04:31:45;;;;;;;;;;;;;;;19.19;78.30;100189.57;105706;1272;125246;-83
2023/09/19 04:34:15;;;;;;;;;;;;;;;19.18;78.47;100186.22;105657;1273;75634;-83
2023/09/19 04:36:43;;;;;;;;;;;;;;;19.16;78.51;100188.56;105728;1267;125532;-86
2023/09/19 04:39:12;;;;;;;;;;;;;;;19.12;78.52;100188.10;105757;1268;71486;-81
2023/09/19 04:41:41;;;;;;;;;;;;;;;19.07;78.50;100187.50;105805;1273;61963;-82
2023/09/19 04:44:07;;;;;;;;;;;;;;;19.01;78.70;100193.65;105572;1268;125457;-83
2023/09/19 04:46:34;;;;;;;;;;;;;;;18.97;78.82;100198.17;105649;1268;75520;-82
2023/09/19 04:49:02;;;;;;;;;;;;;;;18.95;78.99;100206.75;105485;1274;125160;-83
2023/09/19 04:51:33;;;;;;;;;;;;;;;18.95;79.26;100211.73;105708;1273;71647;-83
2023/09/19 04:54:00;;;;;;;;;;;;;;;18.94;79.39;100210.84;105792;1268;62139;-83
2023/09/19 04:56:28;;;;;;;;;;;;;;;18.95;79.45;100210.66;106074;1268;125498;-83
2023/09/19 04:58:55;;;;;;;;;;;;;;;18.94;79.58;100212.08;105943;1271;75219;-83
2023/09/19 05:01:22;;;;;;;;;;;;;;;18.94;79.77;100210.30;106018;1271;125115;-83
2023/09/19 05:03:52;;;;;;;;;;;;;;;18.94;79.88;100207.11;105733;1273;71697;-82
2023/09/19 05:06:20;;;;;;;;;;;;;;;18.93;79.99;100201.98;105625;1268;125927;-80
2023/09/19 05:08:51;;;;;;;;;;;;;;;18.94;80.11;100204.27;105861;1273;62104;-80
2023/09/19 05:11:19;;;;;;;;;;;;;;;18.93;80.30;100201.09;105748;1269;73674;-80
2023/09/19 05:13:45;;;;;;;;;;;;;;;18.94;80.34;100201.42;105866;1272;125191;-82
2023/09/19 05:16:12;;;;;;;;;;;;;;;18.95;80.44;100201.39;105980;1268;61931;-81
2023/09/19 05:18:39;;;;;;;;;;;;;;;18.98;80.55;100200.64;105616;1274;125559;-82
2023/09/19 05:21:06;;;;;;;;;;;;;;;19.01;80.56;100201.48;106007;1270;62117;-82
2023/09/19 05:23:32;;;;;;;;;;;;;;;19.05;80.73;100203.36;105912;1269;75535;-80
2023/09/19 05:25:59;;;;;;;;;;;;;;;19.10;80.86;100196.33;105780;1268;125740;-81
2023/09/19 05:28:26;;;;;;;;;;;;;;;19.15;80.85;100182.71;105796;1268;72780;-81
2023/09/19 05:30:53;;;;;;;;;;;;;;;19.20;80.86;100177.28;105691;1273;125291;-82
2023/09/19 05:33:19;;;;;;;;;;;;;;;19.27;80.86;100179.83;105596;1274;62161;-82
2023/09/19 05:35:47;;;;;;;;;;;;;;;19.32;80.87;100179.71;105718;1270;75602;-82
2023/09/19 05:38:15;;;;;;;;;;;;;;;19.35;80.88;100192.65;105604;1268;125675;-81
2023/09/19 05:40:42;;;;;;;;;;;;;;;19.39;80.94;100187.77;105802;1273;70879;-81
2023/09/19 05:43:10;;;;;;;;;;;;;;;19.43;80.96;100192.29;105617;1267;125467;-87
2023/09/19 05:45:37;;;;;;;;;;;;;;;19.48;80.95;100192.39;105631;1267;62089;-88
2023/09/19 05:48:08;;;;;;;;;;;;;;;19.52;80.93;100196.75;105747;1268;74219;-87
2023/09/19 05:50:34;;;;;;;;;;;;;;;19.58;80.95;100198.05;105665;1268;66363;-87
2023/09/19 05:53:01;;;;;;;;;;;;;;;19.66;81.07;100195.20;105830;1270;71570;-87
2023/09/19 05:55:28;;;;;;;;;;;;;;;19.75;81.07;100203.93;105703;1272;125284;-87
2023/09/19 05:57:55;;;;;;;;;;;;;;;19.86;81.11;100212.08;105547;1268;62085;-81
2023/09/19 06:00:22;;;;;;;;;;;;;;;19.98;81.18;100209.70;105518;1268;125507;-80
2023/09/19 06:02:50;;;;;;;;;;;;;;;20.11;81.05;100206.36;105826;1270;65150;-81
2023/09/19 06:05:21;;;;;;;;;;;;;;;20.21;80.74;100205.95;105672;1268;72718;-82
2023/09/19 06:07:48;;;;;;;;;;;;;;;20.27;80.45;100218.64;105320;1270;124135;-81
2023/09/19 06:10:17;;;;;;;;;;;;;;;20.29;80.25;100227.50;105540;1271;62014;-81
2023/09/19 06:12:44;;;;;;;;;;;;;;;20.26;80.10;100231.67;105463;1268;125979;-82
2023/09/19 06:15:15;;;;;;;;;;;;;;;20.20;79.99;100228.08;105703;1270;66625;-82
2023/09/19 06:17:42;;;;;;;;;;;;;;;20.17;79.91;100227.25;105693;1271;71908;-81
2023/09/19 06:20:15;;;;;;;;;;;;;;;20.16;80.10;100216.21;105647;1270;125161;-81
2023/09/19 06:22:42;;;;;;;;;;;;;;;20.23;80.34;100214.62;105671;1269;60977;-82
2023/09/19 06:25:12;;;;;;;;;;;;;;;20.30;80.22;100217.50;105531;1272;125162;-81
2023/09/19 06:27:42;;;;;;;;;;;;;;;20.32;80.11;100226.52;105577;1270;66351;-81
2023/09/19 06:30:09;;;;;;;;;;;;;;;20.34;80.00;100232.54;105595;1273;72435;-82
2023/09/19 06:32:36;;;;;;;;;;;;;;;20.32;79.80;100236.68;105754;1268;125112;-82
2023/09/19 06:35:02;;;;;;;;;;;;;;;20.30;79.69;100240.49;105681;1267;61968;-83
2023/09/19 06:37:29;;;;;;;;;;;;;;;20.33;79.78;100242.38;105482;1270;125472;-81
2023/09/19 06:39:56;;;;;;;;;;;;;;;20.47;80.00;100241.85;105717;1268;64906;-81
2023/09/19 06:42:23;;;;;;;;;;;;;;;20.66;80.10;100231.98;105510;1268;125338;-82
2023/09/19 06:44:50;;;;;;;;;;;;;;;20.89;79.94;100231.59;105722;1268;62201;-82
2023/09/19 06:47:16;;;;;;;;;;;;;;;21.08;79.61;100236.42;105764;1268;60277;-82
2023/09/19 06:49:46;;;;;;;;;;;;;;;21.23;79.31;100234.27;105525;1276;125403;-82
2023/09/19 06:52:12;;;;;;;;;;;;;;;21.31;78.71;100231.34;105656;1272;66384;-81
2023/09/19 06:54:39;;;;;;;;;;;;;;;21.36;78.51;100238.02;105360;1268;125351;-81
2023/09/19 06:57:09;;;;;;;;;;;;;;;21.41;78.39;100242.15;105598;1273;62161;-81
2023/09/19 06:59:37;;;;;;;;;;;;;;;21.44;78.07;100245.13;105631;1268;62267;-80
2023/09/19 07:02:05;;;;;;;;;;;;;;;21.44;77.99;100247.45;105591;1268;125155;-82
2023/09/19 07:04:33;;;;;;;;;;;;;;;21.42;77.64;100246.40;105746;1268;66494;-81
2023/09/19 07:06:59;;;;;;;;;;;;;;;21.41;77.62;100246.27;105554;1268;125253;-82
2023/09/19 07:09:27;;;;;;;;;;;;;;;21.41;77.43;100243.95;105745;1270;62132;-82
2023/09/19 07:11:54;;;;;;;;;;;;;;;21.41;77.34;100245.02;105702;1268;62069;-81
2023/09/19 07:14:20;;;;;;;;;;;;;;;21.43;77.37;100242.81;105663;1268;126003;-82
2023/09/19 07:16:49;;;;;;;;;;;;;;;21.45;77.26;100248.13;105542;1276;66638;-81
2023/09/19 07:19:16;;;;;;;;;;;;;;;21.49;77.12;100249.47;105669;1268;125186;-87
2023/09/19 07:21:42;;;;;;;;;;;;;;;21.57;77.22;100254.58;105873;1268;62034;-81
2023/09/19 07:24:09;;;;;;;;;;;;;;;21.63;76.93;100255.85;105859;1268;62075;-87
2023/09/19 07:26:35;;;;;;;;;;;;;;;21.68;76.75;100256.61;105672;1268;125854;-88
2023/09/19 07:29:03;;;;;;;;;;;;;;;21.75;76.63;100261.05;105769;1272;66538;-81
2023/09/19 07:31:31;;;;;;;;;;;;;;;21.86;76.47;100259.64;105672;1268;125287;-87
2023/09/19 07:33:57;;;;;;;;;;;;;;;22.03;76.59;100254.52;105824;1270;62262;-87
2023/09/19 07:36:24;;;;;;;;;;;;;;;22.18;76.24;100253.14;105537;1268;124886;-81
2023/09/19 07:38:50;;;;;;;;;;;;;;;22.31;76.15;100250.08;105843;1267;75474;-82
2023/09/19 07:41:17;;;;;;;;;;;;;;;22.40;75.72;100249.45;105810;1268;65002;-81
2023/09/19 07:43:44;;;;;;;;;;;;;;;22.39;75.32;100250.40;105744;1268;124564;-80
2023/09/19 07:46:11;;;;;;;;;;;;;;;22.36;75.18;100253.00;105424;1269;247875;-83
2023/09/19 07:48:38;;;;;;;;;;;;;;;22.31;75.11;100253.13;105636;1273;125027;-83
2023/09/19 07:51:06;;;;;;;;;;;;;;;22.25;75.00;100255.82;105689;1272;74197;-82
2023/09/19 07:53:36;;;;;;;;;;;;;;;22.14;74.92;100258.63;105713;1269;65363;-81
2023/09/19 07:56:06;;;;;;;;;;;;;;;22.00;75.00;100264.24;105634;1268;125073;-82
2023/09/19 07:58:33;;;;;;;;;;;;;;;21.89;74.82;100264.20;105576;1276;62089;-82
2023/09/19 08:01:03;;;;;;;;;;;;;;;21.77;74.81;100267.94;105739;1268;124691;-87
2023/09/19 08:03:30;;;;;;;;;;;;;;;21.66;74.65;100266.29;105723;1268;74595;-87
2023/09/19 08:06:00;;;;;;;;;;;;;;;21.54;74.90;100269.31;105547;1276;66224;-86
2023/09/19 08:08:27;;;;;;;;;;;;;;;21.43;75.06;100271.38;105731;1268;125150;-88
2023/09/19 08:10:56;;;;;;;;;;;;;;;21.39;75.14;100269.00;105846;1268;62040;-87
2023/09/19 08:13:25;;;;;;;;;;;;;;;21.37;75.06;100270.11;105588;1268;125364;-87
2023/09/19 08:15:55;;;;;;;;;;;;;;;21.35;75.08;100271.05;105798;1270;74641;-87
2023/09/19 08:18:22;;;;;;;;;;;;;;;21.33;75.05;100274.66;105668;1267;125374;-87
2023/09/19 08:20:52;;;;;;;;;;;;;;;21.34;75.05;100273.04;105698;1268;72712;-86
2023/09/19 08:23:21;;;;;;;;;;;;;;;21.40;75.12;100276.10;105686;1272;62171;-86
2023/09/19 08:25:47;;;;;;;;;;;;;;;21.48;75.14;100275.91;105820;1268;125130;-86
2023/09/19 08:28:18;;;;;;;;;;;;;;;21.60;75.08;100282.02;105709;1268;75334;-87
2023/09/19 08:30:45;;;;;;;;;;;;;;;21.74;74.93;100275.91;105599;1268;125666;-86
2023/09/19 08:33:14;;;;;;;;;;;;;;;21.86;75.04;100281.63;105565;1270;71481;-86
2023/09/19 08:35:42;;;;;;;;;;;;;;;22.05;74.87;100281.95;105663;1270;60095;-87
2023/09/19 08:38:10;;;;;;;;;;;;;;;22.22;74.47;100276.09;105745;1268;124103;-86
2023/09/19 08:40:42;;;;;;;;;;;;;;;22.42;74.26;100277.46;105875;1268;73994;-87
2023/09/19 08:43:08;;;;;;;;;;;;;;;22.68;74.11;100283.80;105674;1272;125270;-87
2023/09/19 08:45:36;;;;;;;;;;;;;;;22.91;73.54;100286.97;105709;1268;71449;-87
2023/09/19 08:48:07;;;;;;;;;;;;;;;23.03;72.92;100290.52;105878;1270;62222;-87
2023/09/19 08:50:33;;;;;;;;;;;;;;;23.18;72.56;100291.10;105804;1268;125284;-88
2023/09/19 08:53:00;;;;;;;;;;;;;;;23.30;72.03;100292.46;105855;1268;75205;-88
2023/09/19 08:55:27;;;;;;;;;;;;;;;23.38;71.38;100297.77;105735;1273;124459;-88
2023/09/19 08:58:04;;;;;;;;;;;;;;;23.40;70.88;100296.75;105889;1268;72724;-88
2023/09/19 09:00:30;;;;;;;;;;;;;;;23.39;70.27;100291.98;105697;1270;124674;-87
2023/09/19 09:02:57;;;;;;;;;;;;;;;23.38;70.26;100293.27;105750;1267;62104;-87
2023/09/19 09:05:24;;;;;;;;;;;;;;;23.44;70.43;100297.89;105728;1267;74626;-86
2023/09/19 09:07:57;;;;;;;;;;;;;;;23.55;69.93;100301.61;105563;1268;124464;-87
2023/09/19 09:10:23;;;;;;;;;;;;;;;23.62;69.63;100304.77;105892;1268;71965;-87
2023/09/19 09:12:54;;;;;;;;;;;;;;;23.77;69.60;100303.16;105663;1268;124791;-87
2023/09/19 09:15:24;;;;;;;;;;;;;;;23.98;69.37;100300.61;105704;1268;61957;-88
2023/09/19 09:17:53;;;;;;;;;;;;;;;24.23;68.70;100299.48;105651;1267;75477;-87
2023/09/19 09:20:19;;;;;;;;;;;;;;;24.39;68.18;100299.20;105616;1275;124490;-87
2023/09/19 09:22:53;;;;;;;;;;;;;;;24.44;67.79;100304.58;105793;1268;72479;-88
2023/09/19 09:25:23;;;;;;;;;;;;;;;24.47;67.31;100310.20;105751;1268;124661;-88
2023/09/19 09:28:02;;;;;;;;;;;;;;;24.44;67.04;100308.85;105683;1268;61954;-88
2023/09/19 09:30:36;;;;;;;;;;;;;;;24.42;66.78;100312.54;105474;1268;123513;-87
2023/09/19 09:33:13;;;;;;;;;;;;;;;24.52;66.74;100316.46;105625;1275;64984;-87
2023/09/19 09:36:00;;;;;;;;;;;;;;;24.59;66.23;100318.70;105816;1268;72409;-87
2023/09/19 09:38:27;;;;;;;;;;;;;;;24.61;66.08;100319.52;105737;1271;124496;-88
2023/09/19 09:41:06;;;;;;;;;;;;;;;24.65;65.94;100320.29;105748;1270;62091;-87
2023/09/19 09:43:38;;;;;;;;;;;;;;;24.60;65.41;100318.16;105767;1268;124624;-88
2023/09/19 09:49:15;;;;;;;;;;;;;;;24.66;65.33;100318.44;105395;1268;125195;-87
2023/09/19 09:51:43;;;;;;;;;;;;;;;24.79;64.92;100319.15;105722;1268;62130;-87
2023/09/19 09:54:12;;;;;;;;;;;;;;;24.95;64.75;100322.48;105839;1270;61928;-87
2023/09/19 09:59:46;;;;;;;;;;;;;;;25.17;63.74;100322.27;105702;1268;66620;-88
2023/09/19 10:02:16;;;;;;;;;;;;;;;25.10;63.35;100319.71;105767;1268;124830;-88
2023/09/19 10:04:51;;;;;;;;;;;;;;;25.04;63.38;100318.50;105735;1268;61957;-88
2023/09/19 10:07:26;;;;;;;;;;;;;;;25.00;63.19;100318.67;105857;1272;124622;-89
2023/09/19 10:09:52;;;;;;;;;;;;;;;24.93;62.80;100321.63;105846;1267;73707;-88
2023/09/19 10:12:20;;;;;;;;;;;;;;;24.87;62.89;100328.18;105697;1270;124842;-86
2023/09/19 10:14:47;;;;;;;;;;;;;;;24.83;62.61;100333.73;105795;1268;72711;-88
2023/09/19 10:17:15;;;;;;;;;;;;;;;24.84;62.36;100334.75;105701;1268;62091;-88
2023/09/19 10:19:46;;;;;;;;;;;;;;;24.90;62.47;100340.80;105710;1272;124654;-88
2023/09/19 10:22:20;;;;;;;;;;;;;;;24.83;61.89;100344.33;105623;1270;75390;-88
2023/09/19 10:24:47;;;;;;;;;;;;;;;24.66;61.71;100350.23;105499;1267;125732;-86
2023/09/19 10:27:19;;;;;;;;;;;;;;;24.55;61.48;100360.86;105811;1267;71731;-88
2023/09/19 10:29:49;;;;;;;;;;;;;;;24.38;61.45;100363.98;105860;1268;62023;-86
2023/09/19 10:32:19;;;;;;;;;;;;;;;24.30;61.32;100365.94;105799;1270;124670;-87
2023/09/19 10:34:49;;;;;;;;;;;;;;;24.20;61.27;100361.27;105951;1268;73253;-87
2023/09/19 10:37:16;;;;;;;;;;;;;;;24.13;61.37;100363.52;105733;1275;124677;-86
2023/09/19 10:39:46;;;;;;;;;;;;;;;24.16;61.62;100363.03;105953;1268;72774;-88
2023/09/19 10:42:17;;;;;;;;;;;;;;;24.28;61.48;100364.73;105734;1268;124753;-86
2023/09/19 10:44:43;;;;;;;;;;;;;;;24.43;61.01;100362.93;105965;1268;62244;-87
2023/09/19 10:47:10;;;;;;;;;;;;;;;24.53;60.82;100365.98;105740;1268;75620;-87
2023/09/19 10:49:46;;;;;;;;;;;;;;;24.52;60.54;100364.73;105570;1268;125038;-87
2023/09/19 10:52:18;;;;;;;;;;;;;;;24.48;60.33;100361.84;105863;1272;74031;-88
2023/09/19 10:54:52;;;;;;;;;;;;;;;24.30;60.08;100358.75;105714;1268;124645;-87
2023/09/19 10:57:19;;;;;;;;;;;;;;;24.20;60.31;100360.36;106202;1267;62180;-86
2023/09/19 11:00:23;;;;;;;;;;;;;;;24.19;60.24;100350.02;105809;1272;74074;-86
2023/09/19 11:03:09;;;;;;;;;;;;;;;24.12;60.39;100353.49;105679;1268;65994;-87
2023/09/19 11:05:40;;;;;;;;;;;;;;;24.09;60.32;100361.69;106129;1267;72414;-84
2023/09/19 11:08:07;;;;;;;;;;;;;;;24.06;59.41;100357.48;105517;1271;124587;-88
2023/09/19 11:10:50;;;;;;;;;;;;;;;24.07;59.21;100358.88;105455;1268;62072;-82
2023/09/19 11:13:23;;;;;;;;;;;;;;;24.09;59.11;100358.99;105808;1268;124925;-87
2023/09/19 11:15:59;;;;;;;;;;;;;;;24.10;58.79;100360.73;105672;1268;65130;-83
2023/09/19 11:18:51;;;;;;;;;;;;;;;24.13;58.56;100362.98;105778;1268;124598;-83
2023/09/19 11:21:44;;;;;;;;;;;;;;;24.21;58.54;100364.27;105694;1268;62109;-82
2023/09/19 11:24:21;;;;;;;;;;;;;;;24.35;58.45;100363.04;105903;1273;61991;-83
2023/09/19 11:26:48;;;;;;;;;;;;;;;24.52;58.35;100363.64;105798;1268;74019;-87
2023/09/19 11:29:24;;;;;;;;;;;;;;;24.71;58.37;100369.00;105978;1268;65996;-87
2023/09/19 11:31:51;;;;;;;;;;;;;;;24.90;57.89;100374.17;105776;1268;124585;-87
2023/09/19 11:34:39;;;;;;;;;;;;;;;25.01;57.05;100372.31;105769;1270;60360;-87
2023/09/19 11:37:15;;;;;;;;;;;;;;;25.02;56.34;100377.30;105820;1272;124811;-86
2023/09/19 11:40:09;;;;;;;;;;;;;;;25.03;55.49;100379.59;105933;1268;76457;-82
2023/09/19 11:42:43;;;;;;;;;;;;;;;25.02;55.01;100378.90;105661;1270;124620;-81
2023/09/19 11:45:56;;;;;;;;;;;;;;;25.01;55.00;100382.89;105914;1270;72747;-81
2023/09/19 11:48:25;;;;;;;;;;;;;;;25.12;54.83;100384.77;105753;1273;125411;-82
2023/09/19 11:50:51;;;;;;;;;;;;;;;25.21;54.61;100387.26;105852;1268;61991;-82
2023/09/19 11:53:19;;;;;;;;;;;;;;;25.28;54.42;100383.97;105936;1268;67910;-82
2023/09/19 11:55:46;;;;;;;;;;;;;;;25.34;54.08;100385.89;105827;1273;123509;-81
2023/09/19 11:58:16;;;;;;;;;;;;;;;25.40;53.90;100389.73;105828;1267;63949;-81
2023/09/19 12:00:43;;;;;;;;;;;;;;;25.44;53.55;100393.21;105664;1270;124789;-82
2023/09/19 12:03:11;;;;;;;;;;;;;;;25.44;53.03;100394.45;105929;1268;61996;-82
2023/09/19 12:05:37;;;;;;;;;;;;;;;25.43;52.67;100398.98;105801;1267;75998;-81
2023/09/19 12:08:07;;;;;;;;;;;;;;;25.44;52.61;100398.23;105913;1267;124917;-82
2023/09/19 12:10:49;;;;;;;;;;;;;;;25.49;52.51;100407.17;105742;1271;72774;-83
2023/09/19 12:13:20;;;;;;;;;;;;;;;25.50;51.79;100409.26;105825;1268;124764;-82
2023/09/19 12:15:50;;;;;;;;;;;;;;;25.40;51.26;100410.94;105715;1274;62098;-81
2023/09/19 12:18:29;;;;;;;;;;;;;;;25.29;50.82;100410.88;105652;1268;75532;-82
2023/09/19 12:20:57;;;;;;;;;;;;;;;25.15;50.81;100409.43;105495;1268;65123;-82
2023/09/19 12:23:25;;;;;;;;;;;;;;;25.09;50.78;100412.02;105683;1267;72869;-83
2023/09/19 12:25:53;;;;;;;;;;;;;;;25.05;50.36;100412.71;105581;1268;124422;-82
2023/09/19 12:28:22;;;;;;;;;;;;;;;24.99;50.33;100412.05;105601;1267;60147;-82
2023/09/19 12:30:49;;;;;;;;;;;;;;;24.95;50.45;100415.27;105393;1268;124624;-82
2023/09/19 12:33:25;;;;;;;;;;;;;;;24.96;50.26;100420.63;105765;1272;66238;-82
2023/09/19 12:35:55;;;;;;;;;;;;;;;24.92;50.22;100431.36;105665;1268;72780;-82
2023/09/19 12:38:28;;;;;;;;;;;;;;;24.87;50.24;100434.64;105661;1268;124624;-81
2023/09/19 12:40:55;;;;;;;;;;;;;;;24.82;50.36;100440.20;105589;1273;61941;-82